Tyler, Texas
Current Conditions -  °F | °C
As of 5:53 AM on Sunday 25 Jan 2015 (Local Time) from KTYR Reporting Station
Clear Clear  
Wind Chill: 39°   Ceiling: Unl
Heat Index: 44°   Visibility: 10mi
Dew Point: 35°   Wind: 9mph
Humidity: 71%   Direction: 240°WSW
Pressure: 29.93"   Gusts: NA
Location:  32.35°N, 95.29°W
Report Text: KTYR 251153Z AUTO 24008KT 10SM CLR 07/02 A2993 RMK AO2 SLP134 T00670017 10089 20061 55013
Loading
Personal Weather Stations






























Interactive Weather Map New forecast layout! Learn more

10-Day Weather Forecast

Advertisements
Track Severe Weather on mobile